Tilt — WDH5952 — position and weather

sailwx.info

Track history (hours):
 
Tides and Currents Weather Stations Pressure Air Temp Water Temp Dewpoint Dewpoint Depression Visibility Wind Speed Wind Dir Waves Ship Positions

Tilt

Owner: VanVolkinburg, Craig, Muskegon, MI. More information available from US FCC via Universal Licensing System and Coast Guard Vessel Documentation Center.

Last reported at 2018-Mar-18 16:29 UTC. Time now 2018-Apr-19 17:00 UTC.
Position N 27°01' W 080°06'.
Warning: this ship's position is 32 days out of date.

Length 13 m.

Type: Sailing vessel. MMSI: 367633130.

Date/timePositionNaut miles runAvg speedWind from/ knotsBaromVisibWave heightAir tempDewpointWater temp
2018-Mar-18 16:29N 27°01' W 080°06'3 5.6
2018-Mar-18 15:59N 26°58' W 080°05'2 4.1
2018-Mar-18 15:30N 26°56' W 080°05'241 5.0
2018-Mar-16 15:29N 24°18' W 076°43'3 6.0
2018-Mar-16 15:00N 24°16' W 076°40'3 6.3
2018-Mar-16 14:30N 24°14' W 076°37'3 5.4
2018-Mar-16 14:00N 24°13' W 076°35'3 5.2
2018-Mar-16 13:30N 24°11' W 076°33'3 5.1
2018-Mar-16 13:01N 24°09' W 076°31'3 4.8
2018-Mar-16 12:29N 24°08' W 076°28'3 4.9
2018-Mar-16 11:58N 24°07' W 076°26'3 0.1
2018-Mar-14 19:59N 24°05' W 076°23'2 4.9
2018-Mar-14 19:28N 24°02' W 076°23'3 5.7
2018-Mar-14 19:00N 23°60' W 076°22'  
Track history (hours):
 
Tides and Currents Weather Stations Pressure Air Temp Water Temp Dewpoint Dewpoint Depression Visibility Wind Speed Wind Dir Waves Ship Positions

Tilt

Owner: VanVolkinburg, Craig, Muskegon, MI. More information available from US FCC via Universal Licensing System and Coast Guard Vessel Documentation Center.

Last reported at 2018-Mar-18 16:29 UTC. Time now 2018-Apr-19 17:00 UTC.
Position N 27°01' W 080°06'.
Warning: this ship's position is 32 days out of date.

Length 13 m.

Type: Sailing vessel. MMSI: 367633130.

Date/timePositionNaut miles runAvg speedWind from/ knotsBaromVisibWave heightAir tempDewpointWater temp
2018-Mar-18 16:29N 27°01' W 080°06'3 5.6
2018-Mar-18 15:59N 26°58' W 080°05'2 4.1
2018-Mar-18 15:30N 26°56' W 080°05'241 5.0
2018-Mar-16 15:29N 24°18' W 076°43'3 6.0
2018-Mar-16 15:00N 24°16' W 076°40'3 6.3
2018-Mar-16 14:30N 24°14' W 076°37'3 5.4
2018-Mar-16 14:00N 24°13' W 076°35'3 5.2
2018-Mar-16 13:30N 24°11' W 076°33'3 5.1
2018-Mar-16 13:01N 24°09' W 076°31'3 4.8
2018-Mar-16 12:29N 24°08' W 076°28'3 4.9
2018-Mar-16 11:58N 24°07' W 076°26'3 0.1
2018-Mar-14 19:59N 24°05' W 076°23'2 4.9
2018-Mar-14 19:28N 24°02' W 076°23'3 5.7
2018-Mar-14 19:00N 23°60' W 076°22'  

Dump ship's entire track history